createdAt,value
2019-05-11T00:01:04.568Z,1.53
2019-05-11T00:03:34.249Z,1.60
2019-05-11T00:06:03.922Z,1.50
2019-05-11T00:08:33.595Z,1.57
2019-05-11T00:11:03.252Z,1.53
2019-05-11T00:13:33.012Z,1.60
2019-05-11T00:16:02.719Z,1.60
2019-05-11T00:18:32.380Z,1.23
2019-05-11T00:21:02.055Z,1.60
2019-05-11T00:23:31.864Z,1.57
2019-05-11T00:26:01.705Z,1.30
2019-05-11T00:28:31.371Z,2.07
2019-05-11T00:31:01.036Z,1.57
2019-05-11T00:33:30.687Z,1.53
2019-05-11T00:36:00.587Z,1.30
2019-05-11T00:38:30.259Z,1.20
2019-05-11T00:40:59.969Z,1.60
2019-05-11T00:43:29.628Z,1.47
2019-05-11T00:45:59.293Z,1.30
2019-05-11T00:48:28.970Z,1.20
2019-05-11T00:50:58.662Z,1.40
2019-05-11T00:53:28.328Z,1.00
2019-05-11T00:55:58.019Z,1.60
2019-05-11T00:58:27.678Z,1.00
2019-05-11T01:00:57.372Z,1.20
2019-05-11T01:03:27.057Z,1.07
2019-05-11T01:05:56.750Z,1.40
2019-05-11T01:08:26.405Z,1.10
2019-05-11T01:10:56.203Z,0.90
2019-05-11T01:13:25.947Z,0.80
2019-05-11T01:15:55.672Z,1.20
2019-05-11T01:18:25.341Z,1.20
2019-05-11T01:20:55.016Z,1.10
2019-05-11T01:23:24.718Z,0.93
2019-05-11T01:25:54.399Z,1.07
2019-05-11T01:28:24.074Z,1.10
2019-05-11T01:30:53.774Z,1.27
2019-05-11T01:33:23.441Z,1.30
2019-05-11T01:35:53.133Z,0.80
2019-05-11T01:38:22.776Z,0.90
2019-05-11T01:40:58.577Z,1.00
2019-05-11T01:43:23.915Z,0.90
2019-05-11T01:45:53.568Z,1.07
2019-05-11T01:48:23.287Z,1.40
2019-05-11T01:50:52.964Z,1.17
2019-05-11T01:53:22.681Z,1.13
2019-05-11T01:55:52.344Z,1.67
2019-05-11T01:58:22.032Z,1.10
2019-05-11T02:00:51.708Z,1.40
2019-05-11T02:03:21.410Z,0.97
2019-05-11T02:05:51.760Z,1.20
2019-05-11T02:08:21.631Z,0.90
2019-05-11T02:10:51.334Z,1.23
2019-05-11T02:13:21.011Z,1.40
2019-05-11T02:15:50.664Z,1.20
2019-05-11T02:18:20.355Z,1.57
2019-05-11T02:20:50.052Z,1.40
2019-05-11T02:23:19.769Z,1.37
2019-05-11T02:25:49.414Z,1.30
2019-05-11T02:28:19.083Z,1.23
2019-05-11T02:30:48.756Z,1.53
2019-05-11T02:33:18.454Z,1.20
2019-05-11T02:35:48.132Z,1.43
2019-05-11T02:38:17.788Z,1.10
2019-05-11T02:40:47.447Z,1.23
2019-05-11T02:43:17.142Z,1.30
2019-05-11T02:45:46.815Z,1.77
2019-05-11T02:48:16.477Z,1.20
2019-05-11T02:50:46.126Z,2.10
2019-05-11T02:53:15.792Z,1.53
2019-05-11T02:55:45.465Z,1.37
2019-05-11T02:58:15.158Z,1.50
2019-05-11T03:00:45.614Z,1.13
2019-05-11T03:03:15.301Z,1.50
2019-05-11T03:05:44.973Z,1.37
2019-05-11T03:08:14.669Z,1.43
2019-05-11T03:10:44.345Z,1.53
2019-05-11T03:13:14.016Z,1.20
2019-05-11T03:15:43.707Z,1.50
2019-05-11T03:18:13.369Z,1.40
2019-05-11T03:20:43.051Z,1.10
2019-05-11T03:23:12.732Z,1.33
2019-05-11T03:25:42.421Z,1.33
2019-05-11T03:28:12.102Z,0.70
2019-05-11T03:30:41.798Z,1.20
2019-05-11T03:33:11.488Z,1.93
2019-05-11T03:35:41.334Z,2.10
2019-05-11T03:38:11.013Z,1.23
2019-05-11T03:40:40.686Z,1.20
2019-05-11T03:43:10.337Z,1.17
2019-05-11T03:45:40.063Z,1.70
2019-05-11T03:48:09.729Z,2.23
2019-05-11T03:50:39.421Z,1.47
2019-05-11T03:53:09.126Z,2.53
2019-05-11T03:55:38.813Z,1.73
2019-05-11T03:58:08.619Z,3.07
2019-05-11T04:00:38.433Z,2.10
2019-05-11T04:03:08.081Z,1.73
2019-05-11T04:05:37.576Z,1.20
2019-05-11T04:08:07.094Z,1.40
2019-05-11T04:10:36.518Z,1.63
2019-05-11T04:13:05.926Z,1.50
2019-05-11T04:15:35.342Z,1.23
2019-05-11T04:18:04.761Z,1.20
2019-05-11T04:20:34.228Z,1.40
2019-05-11T04:23:03.643Z,1.40
2019-05-11T04:25:33.057Z,1.83
2019-05-11T04:28:02.492Z,1.70
2019-05-11T04:30:31.917Z,2.33
2019-05-11T04:33:01.369Z,2.00
2019-05-11T04:35:30.787Z,3.00
2019-05-11T04:38:00.226Z,2.50
2019-05-11T04:40:29.661Z,1.13
2019-05-11T04:42:59.092Z,1.10
2019-05-11T04:45:28.534Z,1.43
2019-05-11T04:47:57.949Z,1.40
2019-05-11T04:50:27.413Z,1.50
2019-05-11T04:52:56.895Z,1.00
2019-05-11T04:55:26.383Z,1.10
2019-05-11T04:57:55.819Z,1.27
2019-05-11T05:00:25.350Z,1.03
2019-05-11T05:02:54.765Z,1.13
2019-05-11T05:05:24.182Z,1.40
2019-05-11T05:08:07.403Z,1.20
2019-05-11T05:10:24.950Z,1.20
2019-05-11T05:13:08.516Z,1.10
2019-05-11T05:15:25.493Z,1.10
2019-05-11T05:17:54.926Z,1.13
2019-05-11T05:20:24.426Z,1.50
2019-05-11T05:22:53.840Z,1.30
2019-05-11T05:25:23.258Z,1.27
2019-05-11T05:27:52.681Z,0.97
2019-05-11T05:30:22.127Z,1.20
2019-05-11T05:32:51.561Z,1.60
2019-05-11T05:35:20.993Z,1.47
2019-05-11T05:37:50.415Z,1.13
2019-05-11T05:40:19.863Z,1.50
2019-05-11T05:42:49.396Z,0.70
2019-05-11T05:45:18.898Z,2.13
2019-05-11T05:47:48.413Z,1.40
2019-05-11T05:50:17.839Z,1.10
2019-05-11T05:52:47.259Z,1.00
2019-05-11T05:55:16.694Z,1.50
2019-05-11T05:57:46.133Z,1.20
2019-05-11T06:00:15.570Z,1.10
2019-05-11T06:02:45.002Z,1.30
2019-05-11T06:05:14.512Z,1.00
2019-05-11T06:07:43.925Z,1.30
2019-05-11T06:10:13.413Z,0.97
2019-05-11T06:12:42.837Z,1.57
2019-05-11T06:15:12.246Z,1.20
2019-05-11T06:17:41.713Z,1.30
2019-05-11T06:20:11.797Z,1.10
2019-05-11T06:22:41.288Z,0.87
2019-05-11T06:25:10.899Z,1.27
2019-05-11T06:27:40.329Z,1.37
2019-05-11T06:30:09.892Z,1.20
2019-05-11T06:32:39.316Z,1.40
2019-05-11T06:35:08.764Z,1.23
2019-05-11T06:37:38.184Z,1.40
2019-05-11T06:40:07.793Z,1.27
2019-05-11T06:42:37.318Z,1.30
2019-05-11T06:45:06.854Z,1.33
2019-05-11T06:47:36.270Z,1.20
2019-05-11T06:50:06.313Z,1.50
2019-05-11T06:52:35.773Z,1.40
2019-05-11T06:55:05.663Z,1.20
2019-05-11T06:57:35.082Z,1.60
2019-05-11T07:00:04.525Z,1.17
2019-05-11T07:02:33.947Z,1.00
2019-05-11T07:05:03.487Z,1.03
2019-05-11T07:07:46.479Z,1.03
2019-05-11T07:10:04.295Z,1.10
2019-05-11T07:12:33.705Z,1.10
2019-05-11T07:15:03.187Z,1.03
2019-05-11T07:17:32.619Z,1.50
2019-05-11T07:20:02.091Z,1.90
2019-05-11T07:22:31.487Z,2.00
2019-05-11T07:25:00.925Z,1.00
2019-05-11T07:27:31.446Z,1.20
2019-05-11T07:30:00.883Z,1.10
2019-05-11T07:32:30.300Z,1.13
2019-05-11T07:34:59.727Z,0.97
2019-05-11T07:37:29.148Z,1.17
2019-05-11T07:39:58.607Z,1.27
2019-05-11T07:42:28.750Z,1.03
2019-05-11T07:44:58.420Z,0.80
2019-05-11T07:47:28.002Z,1.40
2019-05-11T07:49:58.023Z,1.20
2019-05-11T07:52:28.735Z,2.07
2019-05-11T07:54:58.429Z,1.10
2019-05-11T07:57:28.511Z,1.10
2019-05-11T07:59:58.243Z,1.00
2019-05-11T08:02:29.262Z,1.30
2019-05-11T08:04:59.120Z,1.32
2019-05-11T08:07:28.732Z,1.50
2019-05-11T08:09:58.826Z,1.50
2019-05-11T08:12:28.717Z,1.30
2019-05-11T08:15:08.635Z,1.73
2019-05-11T08:17:29.599Z,1.20
2019-05-11T08:19:59.082Z,1.33
2019-05-11T08:22:28.636Z,1.27
2019-05-11T08:24:58.995Z,1.00
2019-05-11T08:27:28.709Z,1.00
2019-05-11T08:29:58.334Z,0.80
2019-05-11T08:32:28.662Z,1.23
2019-05-11T08:34:58.401Z,1.30
2019-05-11T08:37:28.518Z,1.10
2019-05-11T08:39:58.644Z,1.00
2019-05-11T08:42:29.049Z,1.17
2019-05-11T08:45:14.823Z,0.93
2019-05-11T08:47:29.750Z,1.00
2019-05-11T08:49:59.211Z,0.80
2019-05-11T08:52:28.720Z,1.17
2019-05-11T08:54:58.291Z,1.10
2019-05-11T08:57:28.549Z,1.03
2019-05-11T08:59:58.219Z,0.80
2019-05-11T09:02:27.983Z,1.00
2019-05-11T09:04:58.894Z,1.10
2019-05-11T09:07:28.552Z,0.90
2019-05-11T09:09:58.704Z,1.10
2019-05-11T09:12:28.935Z,1.10
2019-05-11T09:14:58.619Z,1.63
2019-05-11T09:17:28.897Z,1.07
2019-05-11T09:19:58.673Z,1.23
2019-05-11T09:22:28.521Z,0.90
2019-05-11T09:24:58.371Z,0.90
2019-05-11T09:27:28.650Z,0.93
2019-05-11T09:29:58.883Z,1.00
2019-05-11T09:32:28.759Z,1.10
2019-05-11T09:34:58.209Z,1.23
2019-05-11T09:37:27.923Z,1.00
2019-05-11T09:39:58.378Z,1.00
2019-05-11T09:42:28.669Z,0.93
2019-05-11T09:44:58.286Z,1.00
2019-05-11T09:47:28.102Z,1.00
2019-05-11T09:49:59.958Z,0.90
2019-05-11T09:52:32.617Z,0.80
2019-05-11T09:55:02.283Z,0.90
2019-05-11T09:57:31.894Z,1.00
2019-05-11T10:00:01.382Z,0.87
2019-05-11T10:02:30.895Z,0.90
2019-05-11T10:05:00.535Z,1.00
2019-05-11T10:07:32.472Z,1.00
2019-05-11T10:10:01.289Z,1.00
2019-05-11T10:12:30.881Z,1.10
2019-05-11T10:15:00.416Z,0.93
2019-05-11T10:17:29.925Z,1.23
2019-05-11T10:19:59.362Z,1.10
2019-05-11T10:22:28.778Z,1.47
2019-05-11T10:24:58.410Z,0.87
2019-05-11T10:27:28.075Z,1.37
2019-05-11T10:29:58.980Z,1.30
2019-05-11T10:32:28.841Z,0.83
2019-05-11T10:34:58.530Z,1.10
2019-05-11T10:37:28.362Z,1.00
2019-05-11T10:39:57.969Z,1.23
2019-05-11T10:42:28.329Z,0.90
2019-05-11T10:44:58.343Z,0.90
2019-05-11T10:47:28.040Z,1.33
2019-05-11T10:49:57.983Z,1.07
2019-05-11T10:52:28.522Z,1.03
2019-05-11T10:54:58.724Z,0.90
2019-05-11T10:57:28.506Z,0.73
2019-05-11T10:59:58.162Z,1.00
2019-05-11T11:02:28.040Z,0.67
2019-05-11T11:04:58.874Z,0.70
2019-05-11T11:07:29.013Z,0.70
2019-05-11T11:09:58.571Z,1.10
2019-05-11T11:12:28.188Z,0.80
2019-05-11T11:14:58.731Z,0.67
2019-05-11T11:17:28.862Z,0.70
2019-05-11T11:19:58.383Z,0.93
2019-05-11T11:22:39.014Z,0.80
2019-05-11T11:24:59.359Z,0.70
2019-05-11T11:27:29.244Z,1.53
2019-05-11T11:29:58.928Z,1.63
2019-05-11T11:32:28.404Z,1.00
2019-05-11T11:34:57.973Z,1.13
2019-05-11T11:37:28.075Z,0.80
2019-05-11T11:39:58.199Z,0.80
2019-05-11T11:42:28.310Z,0.70
2019-05-11T11:44:58.796Z,1.00
2019-05-11T11:47:28.465Z,1.10
2019-05-11T11:49:58.495Z,0.80
2019-05-11T11:52:27.972Z,0.70
2019-05-11T11:54:58.679Z,0.90
2019-05-11T11:57:28.450Z,0.90
2019-05-11T11:59:58.844Z,0.80
2019-05-11T12:02:28.355Z,0.60
2019-05-11T12:04:58.333Z,1.53
2019-05-11T12:07:28.524Z,0.60
2019-05-11T12:09:58.904Z,0.70
2019-05-11T12:12:28.403Z,0.65
2019-05-11T12:14:58.491Z,0.70
2019-05-11T12:17:28.661Z,0.90
2019-05-11T12:19:58.701Z,0.70
2019-05-11T12:22:27.999Z,0.60
2019-05-11T12:24:58.940Z,0.82
2019-05-11T12:27:28.873Z,1.93
2019-05-11T12:29:58.418Z,1.33
2019-05-11T12:32:42.147Z,0.80
2019-05-11T12:35:11.797Z,0.70
2019-05-11T12:37:41.320Z,0.80
2019-05-11T12:40:10.887Z,0.90
2019-05-11T12:42:40.449Z,0.80
2019-05-11T12:45:09.916Z,0.60
2019-05-11T12:47:39.499Z,0.70
2019-05-11T12:50:09.059Z,0.70
2019-05-11T12:52:38.577Z,0.93
2019-05-11T12:55:08.700Z,0.60
2019-05-11T12:57:38.812Z,0.88
2019-05-11T13:00:08.765Z,0.65
2019-05-11T13:02:38.951Z,0.80
2019-05-11T13:05:08.837Z,0.80
2019-05-11T13:07:39.195Z,0.77
2019-05-11T13:10:09.088Z,0.80
2019-05-11T13:12:38.756Z,1.00
2019-05-11T13:15:08.522Z,0.87
2019-05-11T13:17:40.808Z,0.80
2019-05-11T13:20:12.786Z,0.70
2019-05-11T13:22:41.618Z,0.70
2019-05-11T13:25:11.118Z,1.00
2019-05-11T13:27:40.583Z,0.67
2019-05-11T13:30:10.649Z,0.90
2019-05-11T13:32:40.091Z,0.60
2019-05-11T13:35:09.495Z,1.00
2019-05-11T13:37:39.087Z,0.60
2019-05-11T13:40:08.672Z,1.00
2019-05-11T13:42:38.723Z,0.90
2019-05-11T13:45:08.637Z,0.80
2019-05-11T13:47:51.585Z,0.80
2019-05-11T13:50:09.433Z,0.93
2019-05-11T13:52:39.094Z,0.90
2019-05-11T13:55:09.040Z,1.13
2019-05-11T13:57:39.642Z,0.73
2019-05-11T14:00:09.116Z,1.00
2019-05-11T14:02:38.668Z,0.80
2019-05-11T14:05:08.689Z,0.90
2019-05-11T14:07:38.534Z,0.80
2019-05-11T14:10:08.344Z,0.77
2019-05-11T14:12:38.493Z,0.90
2019-05-11T14:15:08.782Z,1.00
2019-05-11T14:17:38.297Z,0.70
2019-05-11T14:20:09.084Z,1.20
2019-05-11T14:22:38.898Z,0.90
2019-05-11T14:25:08.369Z,0.83
2019-05-11T14:30:09.957Z,1.00
2019-05-11T14:32:21.429Z,0.70
2019-05-11T14:32:39.424Z,0.80
2019-05-11T14:35:12.059Z,0.90
2019-05-11T14:37:40.015Z,1.00
2019-05-11T14:40:09.453Z,1.00
2019-05-11T14:42:38.928Z,1.03
2019-05-11T14:45:08.697Z,0.70
2019-05-11T14:47:39.063Z,0.97
2019-05-11T14:50:09.473Z,0.90
2019-05-11T14:52:39.213Z,0.90
2019-05-11T14:55:08.757Z,0.90
2019-05-11T14:57:39.627Z,1.10
2019-05-11T15:00:10.256Z,0.90
2019-05-11T15:02:49.860Z,0.80
2019-05-11T15:05:19.891Z,0.97
2019-05-11T15:07:52.383Z,0.80
2019-05-11T15:10:21.537Z,0.80
2019-05-11T15:12:50.975Z,1.20
2019-05-11T15:15:20.483Z,0.90
2019-05-11T15:17:49.887Z,1.00
2019-05-11T15:20:19.346Z,0.90
2019-05-11T15:22:49.210Z,0.67
2019-05-11T15:25:19.518Z,1.90
2019-05-11T15:27:49.457Z,0.80
2019-05-11T15:30:18.914Z,0.87
2019-05-11T15:32:48.583Z,0.90
2019-05-11T15:35:18.779Z,1.10
2019-05-11T15:37:48.657Z,1.33
2019-05-11T15:40:19.296Z,0.90
2019-05-11T15:42:48.954Z,2.37
2019-05-11T15:45:18.886Z,0.90
2019-05-11T15:47:48.991Z,1.00
2019-05-11T15:50:19.168Z,1.43
2019-05-11T15:52:49.138Z,1.20
2019-05-11T15:55:19.206Z,1.33
2019-05-11T15:57:48.843Z,0.80
2019-05-11T16:00:19.454Z,1.30
2019-05-11T16:02:49.290Z,0.97
2019-05-11T16:05:18.853Z,1.70
2019-05-11T16:07:49.211Z,1.00
2019-05-11T16:10:19.334Z,0.93
2019-05-11T16:12:49.101Z,1.10
2019-05-11T16:15:19.514Z,1.00
2019-05-11T16:17:49.653Z,0.90
2019-05-11T16:20:19.099Z,1.00
2019-05-11T16:22:48.578Z,1.37
2019-05-11T16:25:19.736Z,1.37
2019-05-11T16:27:49.231Z,1.17
2019-05-11T16:30:21.579Z,1.30
2019-05-11T16:32:49.901Z,1.00
2019-05-11T16:35:19.375Z,1.00
2019-05-11T16:37:48.944Z,1.00
2019-05-11T16:40:20.837Z,1.20
2019-05-11T16:42:49.520Z,1.60
2019-05-11T16:45:19.471Z,1.60
2019-05-11T16:47:49.014Z,1.80
2019-05-11T16:50:18.562Z,3.50
2019-05-11T16:52:48.565Z,2.20
2019-05-11T16:55:18.668Z,1.77
2019-05-11T16:57:48.847Z,1.00
2019-05-11T17:00:18.534Z,1.00
2019-05-11T17:02:48.962Z,1.43
2019-05-11T17:05:26.453Z,1.30
2019-05-11T17:07:50.225Z,4.73
2019-05-11T17:10:19.838Z,1.80
2019-05-11T17:12:49.271Z,1.70
2019-05-11T17:15:19.086Z,1.73
2019-05-11T17:17:49.121Z,1.23
2019-05-11T17:20:19.162Z,1.77
2019-05-11T17:22:48.719Z,5.93
2019-05-11T17:25:19.166Z,2.43
2019-05-11T17:50:18.896Z,3.00
2019-05-11T17:52:48.062Z,2.87
2019-05-11T17:55:18.361Z,2.43
2019-05-11T17:57:49.188Z,1.80
2019-05-11T18:00:20.156Z,2.60
2019-05-11T18:02:49.832Z,2.95
2019-05-11T18:05:19.230Z,2.80
2019-05-11T18:07:48.660Z,2.40
2019-05-11T18:10:18.447Z,2.00
2019-05-11T18:12:48.835Z,2.50
2019-05-11T18:15:18.911Z,1.80
2019-05-11T18:17:49.056Z,2.00
2019-05-11T18:20:21.922Z,1.80
2019-05-11T18:22:50.406Z,2.03
2019-05-11T18:25:19.809Z,1.97
2019-05-11T18:27:49.228Z,1.90
2019-05-11T18:30:18.744Z,2.20
2019-05-11T18:32:48.984Z,1.70
2019-05-11T18:35:19.417Z,2.40
2019-05-11T18:37:49.320Z,2.37
2019-05-11T18:40:19.061Z,2.60
2019-05-11T18:42:49.078Z,2.10
2019-05-11T18:45:19.220Z,2.10
2019-05-11T18:47:49.294Z,2.40
2019-05-11T18:50:29.871Z,2.23
2019-05-11T18:52:50.012Z,2.90
2019-05-11T18:55:19.567Z,2.07
2019-05-11T18:57:49.438Z,2.53
2019-05-11T19:00:18.988Z,2.70
2019-05-11T19:02:49.056Z,2.40
2019-05-11T19:05:18.279Z,2.60
2019-05-11T19:07:48.318Z,2.30
2019-05-11T19:10:17.911Z,2.40
2019-05-11T19:12:48.784Z,2.10
2019-05-11T19:15:19.120Z,2.10
2019-05-11T19:17:49.366Z,2.33
2019-05-11T19:20:20.665Z,3.57
2019-05-11T19:22:50.077Z,2.90
2019-05-11T19:25:19.501Z,4.37
2019-05-11T19:27:50.766Z,2.77
2019-05-11T19:30:20.095Z,4.03
2019-05-11T19:32:49.519Z,3.20
2019-05-11T19:35:21.109Z,4.03
2019-05-11T19:37:50.274Z,4.17
2019-05-11T19:40:19.693Z,4.00
2019-05-11T19:42:55.690Z,2.30
2019-05-11T19:45:25.122Z,3.00
2019-05-11T19:47:54.527Z,2.80
2019-05-11T19:50:23.983Z,1.90
2019-05-11T19:52:53.496Z,1.87
2019-05-11T19:55:22.954Z,1.93
2019-05-11T19:57:52.385Z,1.80
2019-05-11T20:00:21.928Z,1.47
2019-05-11T20:02:51.455Z,2.03
2019-05-11T20:05:20.881Z,1.37
2019-05-11T20:07:50.334Z,1.90
2019-05-11T20:10:19.992Z,1.80
2019-05-11T20:12:49.468Z,1.90
2019-05-11T20:15:19.313Z,1.83
2019-05-11T20:17:49.257Z,2.70
2019-05-11T20:20:19.119Z,2.30
2019-05-11T20:22:48.831Z,2.27
2019-05-11T20:25:19.292Z,2.40
2019-05-11T20:27:49.384Z,3.10
2019-05-11T20:30:19.354Z,2.03
2019-05-11T20:32:49.494Z,2.20
2019-05-11T20:35:18.957Z,2.57
2019-05-11T20:37:48.429Z,2.10
2019-05-11T20:40:18.506Z,2.10
2019-05-11T20:42:48.700Z,2.43
2019-05-11T20:45:18.706Z,2.00
2019-05-11T20:47:49.030Z,1.97
2019-05-11T20:50:18.960Z,2.07
2019-05-11T20:52:48.686Z,1.80
2019-05-11T20:55:18.564Z,2.23
2019-05-11T20:57:48.458Z,1.90
2019-05-11T21:00:18.721Z,2.00
2019-05-11T21:02:48.946Z,1.80
2019-05-11T21:05:18.784Z,1.83
2019-05-11T21:07:48.261Z,2.00
2019-05-11T21:10:17.729Z,2.23
2019-05-11T21:12:47.148Z,1.70
2019-05-11T21:15:16.593Z,2.00
2019-05-11T21:17:48.145Z,1.60
2019-05-11T21:20:18.268Z,1.93
2019-05-11T21:22:48.715Z,1.90
2019-05-11T21:25:18.437Z,1.63
2019-05-11T21:27:48.649Z,1.40
2019-05-11T21:30:18.633Z,2.20
2019-05-11T21:32:48.227Z,1.50
2019-05-11T21:35:19.279Z,1.80
2019-05-11T21:37:48.998Z,1.53
2019-05-11T21:40:18.467Z,1.50
2019-05-11T21:42:47.898Z,2.00
2019-05-11T21:45:18.370Z,2.03
2019-05-11T21:47:49.025Z,2.50
2019-05-11T21:50:19.243Z,3.00
2019-05-11T21:52:48.888Z,2.53
2019-05-11T21:55:18.354Z,2.80
2019-05-11T21:57:49.812Z,2.70
2019-05-11T22:00:19.129Z,2.60
2019-05-11T22:02:48.799Z,2.43
2019-05-11T22:05:20.848Z,3.00
2019-05-11T22:07:49.686Z,2.37
2019-05-11T22:10:19.103Z,2.37
2019-05-11T22:12:49.146Z,3.00
2019-05-11T22:15:19.132Z,2.60
2019-05-11T22:17:48.556Z,2.20
2019-05-11T22:20:18.531Z,1.87
2019-05-11T22:22:48.100Z,1.37
2019-05-11T22:25:18.225Z,1.77
2019-05-11T22:27:48.865Z,1.70
2019-05-11T22:30:18.770Z,2.00
2019-05-11T22:32:48.355Z,1.70
2019-05-11T22:35:18.422Z,1.47
2019-05-11T22:37:49.077Z,1.40
2019-05-11T22:40:18.581Z,1.50
2019-05-11T22:42:48.012Z,1.37
2019-05-11T22:45:18.684Z,2.03
2019-05-11T22:47:48.474Z,1.30
2019-05-11T22:50:18.819Z,1.50
2019-05-11T22:52:48.723Z,1.40
2019-05-11T22:55:18.886Z,1.70
2019-05-11T22:57:48.869Z,1.90
2019-05-11T23:00:23.592Z,2.40
2019-05-11T23:02:52.993Z,1.40
2019-05-11T23:05:22.458Z,1.40
2019-05-11T23:07:51.899Z,1.27
2019-05-11T23:10:21.319Z,1.10
2019-05-11T23:12:50.737Z,1.40
2019-05-11T23:15:20.171Z,1.87
2019-05-11T23:17:49.588Z,1.27
2019-05-11T23:20:19.009Z,1.20
2019-05-11T23:22:56.980Z,1.27
2019-05-11T23:25:19.572Z,1.53
2019-05-11T23:27:49.183Z,1.27
2019-05-11T23:30:19.794Z,1.37
2019-05-11T23:32:49.989Z,0.90
2019-05-11T23:35:19.456Z,1.07
2019-05-11T23:37:49.889Z,1.00
2019-05-11T23:40:19.681Z,1.10
2019-05-11T23:42:49.412Z,1.50
2019-05-11T23:45:19.416Z,1.73
2019-05-11T23:47:49.240Z,1.70
2019-05-11T23:50:19.767Z,1.13
2019-05-11T23:53:05.103Z,1.57
2019-05-11T23:55:20.490Z,1.60
2019-05-11T23:57:50.008Z,1.50
